createdAt,value
2023-03-13T00:01:00.355Z,2.35
2023-03-13T00:03:28.032Z,3.40
2023-03-13T00:05:58.379Z,2.20
2023-03-13T00:08:25.925Z,3.25
2023-03-13T00:10:52.450Z,2.40
2023-03-13T00:13:18.782Z,2.25
2023-03-13T00:15:45.149Z,2.50
2023-03-13T00:18:11.710Z,2.47
2023-03-13T00:20:38.078Z,2.47
2023-03-13T00:23:04.493Z,3.00
2023-03-13T00:25:30.869Z,2.78
2023-03-13T00:27:58.268Z,3.08
2023-03-13T00:30:24.648Z,2.63
2023-03-13T00:32:51.058Z,2.55
2023-03-13T00:35:17.475Z,2.70
2023-03-13T00:37:43.964Z,2.28
2023-03-13T00:40:10.746Z,2.80
2023-03-13T00:42:37.139Z,2.95
2023-03-13T00:45:04.013Z,2.22
2023-03-13T00:47:30.395Z,2.77
2023-03-13T00:49:56.714Z,3.05
2023-03-13T00:52:24.225Z,2.65
2023-03-13T00:54:51.224Z,2.28
2023-03-13T00:57:17.559Z,3.00
2023-03-13T00:59:43.899Z,2.27
2023-03-13T01:02:10.271Z,2.45
2023-03-13T01:04:36.693Z,2.90
2023-03-13T01:07:03.001Z,3.45
2023-03-13T01:09:29.319Z,3.03
2023-03-13T01:11:55.691Z,3.00
2023-03-13T01:14:22.015Z,3.63
2023-03-13T01:16:48.448Z,2.03
2023-03-13T01:19:16.642Z,3.20
2023-03-13T01:21:44.474Z,2.67
2023-03-13T01:24:10.802Z,3.00
2023-03-13T01:26:37.480Z,2.75
2023-03-13T01:29:04.193Z,2.53
2023-03-13T01:31:35.539Z,1.98
2023-03-13T01:34:04.605Z,2.40
2023-03-13T01:36:32.016Z,1.80
2023-03-13T01:39:00.767Z,2.00
2023-03-13T01:41:28.952Z,1.83
2023-03-13T01:43:55.477Z,1.58
2023-03-13T01:46:25.086Z,2.05
2023-03-13T01:49:00.479Z,1.90
2023-03-13T01:51:30.487Z,1.92
2023-03-13T01:54:07.908Z,1.67
2023-03-13T01:56:45.623Z,1.95
2023-03-13T01:59:16.942Z,1.85
2023-03-13T02:01:46.211Z,1.57
2023-03-13T02:04:15.852Z,1.88
2023-03-13T02:06:45.131Z,2.42
2023-03-13T02:09:17.085Z,2.00
2023-03-13T02:12:07.415Z,2.15
2023-03-13T02:14:37.326Z,1.90
2023-03-13T02:17:05.198Z,2.20
2023-03-13T02:19:46.307Z,2.38
2023-03-13T02:22:21.607Z,2.10
2023-03-13T02:25:02.102Z,2.90
2023-03-13T02:27:28.490Z,2.70
2023-03-13T02:29:54.844Z,2.42
2023-03-13T02:32:22.870Z,2.60
2023-03-13T02:34:52.774Z,2.70
2023-03-13T02:37:20.715Z,3.13
2023-03-13T02:39:50.248Z,2.97
2023-03-13T02:42:19.102Z,3.33
2023-03-13T02:44:46.527Z,3.33
2023-03-13T02:47:18.601Z,3.13
2023-03-13T02:49:45.150Z,3.10
2023-03-13T02:52:26.163Z,3.37
2023-03-13T02:55:02.731Z,3.38
2023-03-13T02:57:29.347Z,4.25
2023-03-13T02:59:55.665Z,3.50
2023-03-13T03:02:22.665Z,4.50
2023-03-13T03:04:48.997Z,4.30
2023-03-13T03:07:15.419Z,4.00
2023-03-13T03:09:41.719Z,4.35
2023-03-13T03:12:08.458Z,4.85
2023-03-13T03:14:34.807Z,4.80
2023-03-13T03:17:01.120Z,4.93
2023-03-13T03:19:27.499Z,4.80
2023-03-13T03:21:53.817Z,4.65
2023-03-13T03:24:20.113Z,4.57
2023-03-13T03:26:46.942Z,5.85
2023-03-13T03:29:13.326Z,5.57
2023-03-13T03:31:39.693Z,5.68
2023-03-13T03:34:06.168Z,5.32
2023-03-13T03:36:32.477Z,5.00
2023-03-13T03:38:59.080Z,5.90
2023-03-13T03:41:25.594Z,5.97
2023-03-13T03:43:51.953Z,5.60
2023-03-13T03:46:18.605Z,5.65
2023-03-13T03:48:45.136Z,5.05
2023-03-13T03:51:11.551Z,5.25
2023-03-13T03:53:37.984Z,5.17
2023-03-13T03:56:04.774Z,4.28
2023-03-13T03:58:31.127Z,4.07
2023-03-13T04:00:58.315Z,5.05
2023-03-13T04:03:25.584Z,4.80
2023-03-13T04:05:52.216Z,3.70
2023-03-13T04:08:18.764Z,4.00
2023-03-13T04:10:45.300Z,4.28
2023-03-13T04:13:11.658Z,3.80
2023-03-13T04:15:39.680Z,3.83
2023-03-13T04:18:06.231Z,3.80
2023-03-13T04:20:32.787Z,3.58
2023-03-13T04:22:59.308Z,3.30
2023-03-13T04:25:26.133Z,3.70
2023-03-13T04:27:52.443Z,3.65
2023-03-13T04:30:18.916Z,3.53
2023-03-13T04:32:45.403Z,3.40
2023-03-13T04:35:11.778Z,4.13
2023-03-13T04:37:38.146Z,3.67
2023-03-13T04:40:05.173Z,3.58
2023-03-13T04:42:31.491Z,3.87
2023-03-13T04:44:57.820Z,3.90
2023-03-13T04:47:25.457Z,3.58
2023-03-13T04:49:51.820Z,3.95
2023-03-13T04:52:18.210Z,3.33
2023-03-13T04:54:44.965Z,3.80
2023-03-13T04:57:11.318Z,3.60
2023-03-13T04:59:37.691Z,3.17
2023-03-13T05:02:04.026Z,3.20
2023-03-13T05:04:30.776Z,2.88
2023-03-13T05:06:57.078Z,3.07
2023-03-13T05:09:23.504Z,2.53
2023-03-13T05:11:50.635Z,3.28
2023-03-13T05:14:16.981Z,2.60
2023-03-13T05:16:43.380Z,2.20
2023-03-13T05:19:09.700Z,2.60
2023-03-13T05:21:36.073Z,2.65
2023-03-13T05:24:02.416Z,3.10
2023-03-13T05:26:28.765Z,2.35
2023-03-13T05:28:55.101Z,2.50
2023-03-13T05:31:21.614Z,2.40
2023-03-13T05:33:47.963Z,2.15
2023-03-13T05:36:14.558Z,1.92
2023-03-13T05:38:40.896Z,2.40
2023-03-13T05:41:07.239Z,2.38
2023-03-13T05:43:33.550Z,1.83
2023-03-13T05:45:59.929Z,2.08
2023-03-13T05:48:26.281Z,1.85
2023-03-13T05:50:52.645Z,2.33
2023-03-13T05:53:18.975Z,1.85
2023-03-13T05:55:45.274Z,2.20
2023-03-13T05:58:11.593Z,1.35
2023-03-13T06:00:38.034Z,1.88
2023-03-13T06:03:07.353Z,2.00
2023-03-13T06:05:33.666Z,1.90
2023-03-13T06:08:00.106Z,1.80
2023-03-13T06:10:26.496Z,2.40
2023-03-13T06:12:54.799Z,1.65
2023-03-13T06:15:21.266Z,1.70
2023-03-13T06:17:48.067Z,1.75
2023-03-13T06:20:14.784Z,1.83
2023-03-13T06:22:42.148Z,1.80
2023-03-13T06:25:09.022Z,2.05
2023-03-13T06:27:35.574Z,1.75
2023-03-13T06:30:01.994Z,2.17
2023-03-13T06:32:28.658Z,1.43
2023-03-13T06:34:55.047Z,2.13
2023-03-13T06:37:21.382Z,1.55
2023-03-13T06:39:47.685Z,1.80
2023-03-13T06:42:13.997Z,1.88
2023-03-13T06:44:41.549Z,1.77
2023-03-13T06:47:08.012Z,1.90
2023-03-13T06:49:34.484Z,1.85
2023-03-13T06:52:00.951Z,1.65
2023-03-13T06:54:28.021Z,1.65
2023-03-13T06:56:54.350Z,1.63
2023-03-13T06:59:20.757Z,1.73
2023-03-13T07:01:47.213Z,2.25
2023-03-13T07:04:14.257Z,1.95
2023-03-13T07:06:40.682Z,2.10
2023-03-13T07:09:06.993Z,1.70
2023-03-13T07:11:33.392Z,1.92
2023-03-13T07:14:15.361Z,1.48
2023-03-13T07:16:42.823Z,1.52
2023-03-13T07:19:09.339Z,2.00
2023-03-13T07:21:35.764Z,1.70
2023-03-13T07:24:02.380Z,2.25
2023-03-13T07:26:28.818Z,1.65
2023-03-13T07:28:56.024Z,1.60
2023-03-13T07:31:24.512Z,1.92
2023-03-13T07:33:52.991Z,2.00
2023-03-13T07:36:19.408Z,1.60
2023-03-13T07:38:49.691Z,2.40
2023-03-13T07:41:16.371Z,2.80
2023-03-13T07:43:42.835Z,2.30
2023-03-13T07:46:12.601Z,2.07
2023-03-13T07:48:41.357Z,2.13
2023-03-13T07:51:12.324Z,1.52
2023-03-13T07:53:38.956Z,2.25
2023-03-13T07:56:10.061Z,2.15
2023-03-13T07:58:38.258Z,2.07
2023-03-13T08:01:16.150Z,1.70
2023-03-13T08:03:44.125Z,1.90
2023-03-13T08:06:16.535Z,1.75
2023-03-13T08:08:43.546Z,2.10
2023-03-13T08:11:15.043Z,1.40
2023-03-13T08:13:41.970Z,1.75
2023-03-13T08:16:34.074Z,1.52
2023-03-13T08:19:04.619Z,1.48
2023-03-13T08:21:33.437Z,1.50
2023-03-13T08:24:05.735Z,1.80
2023-03-13T08:26:34.060Z,1.75
2023-03-13T08:29:07.032Z,1.88
2023-03-13T08:31:47.022Z,1.48
2023-03-13T08:34:14.594Z,1.98
2023-03-13T08:36:41.128Z,1.57
2023-03-13T08:39:12.323Z,1.63
2023-03-13T08:44:21.119Z,1.70
2023-03-13T08:46:49.455Z,1.83
2023-03-13T08:49:18.257Z,1.63
2023-03-13T08:51:45.055Z,1.35
2023-03-13T08:54:11.486Z,1.52
2023-03-13T08:56:38.317Z,1.20
2023-03-13T08:59:05.943Z,1.75
2023-03-13T09:01:34.001Z,1.00
2023-03-13T09:04:03.422Z,1.13
2023-03-13T09:06:30.550Z,1.20
2023-03-13T09:08:58.116Z,1.40
2023-03-13T09:11:25.146Z,1.42
2023-03-13T09:13:52.078Z,1.20
2023-03-13T09:16:21.246Z,1.20
2023-03-13T09:18:48.638Z,1.13
2023-03-13T09:21:17.891Z,1.33
2023-03-13T09:23:44.722Z,1.50
2023-03-13T09:26:12.221Z,1.10
2023-03-13T09:28:38.644Z,1.20
2023-03-13T09:31:10.338Z,1.05
2023-03-13T09:33:37.129Z,0.88
2023-03-13T09:36:04.170Z,0.77
2023-03-13T09:38:30.885Z,0.90
2023-03-13T09:41:06.446Z,0.70
2023-03-13T09:43:45.152Z,0.60
2023-03-13T09:46:22.478Z,1.05
2023-03-13T09:49:02.601Z,1.05
2023-03-13T09:51:42.644Z,1.10
2023-03-13T09:54:38.564Z,1.27
2023-03-13T09:57:23.216Z,0.90
2023-03-13T09:59:56.363Z,0.75
2023-03-13T10:02:31.863Z,0.60
2023-03-13T10:05:06.088Z,0.80
2023-03-13T10:07:32.490Z,1.08
2023-03-13T10:10:01.880Z,0.70
2023-03-13T10:12:31.392Z,1.00
2023-03-13T10:15:22.918Z,1.08
2023-03-13T10:17:49.577Z,0.90
2023-03-13T10:20:34.833Z,0.45
2023-03-13T10:23:07.687Z,0.75
2023-03-13T10:25:38.293Z,0.90
2023-03-13T10:28:11.645Z,0.70
2023-03-13T10:30:43.356Z,0.60
2023-03-13T10:33:12.687Z,0.80
2023-03-13T10:35:41.708Z,0.60
2023-03-13T10:38:18.364Z,0.80
2023-03-13T10:40:57.226Z,0.80
2023-03-13T10:43:25.641Z,0.70
2023-03-13T10:45:52.726Z,0.50
2023-03-13T10:48:19.335Z,0.80
2023-03-13T10:50:51.821Z,0.90
2023-03-13T10:53:30.019Z,0.52
2023-03-13T10:56:19.492Z,0.60
2023-03-13T10:58:52.502Z,1.00
2023-03-13T11:01:26.624Z,0.70
2023-03-13T11:03:55.995Z,0.88
2023-03-13T11:06:35.101Z,0.85
2023-03-13T11:09:12.991Z,0.60
2023-03-13T11:11:49.259Z,1.08
2023-03-13T11:14:21.403Z,0.80
2023-03-13T11:16:50.535Z,1.00
2023-03-13T11:19:53.125Z,0.70
2023-03-13T11:22:30.861Z,0.60
2023-03-13T11:25:04.088Z,0.60
2023-03-13T11:27:58.173Z,0.63
2023-03-13T11:30:39.670Z,0.70
2023-03-13T11:33:18.166Z,0.80
2023-03-13T11:35:59.559Z,0.93
2023-03-13T11:38:33.356Z,0.57
2023-03-13T11:41:11.686Z,0.70
2023-03-13T11:43:50.431Z,0.40
2023-03-13T11:46:33.128Z,0.50
2023-03-13T11:49:08.435Z,0.60
2023-03-13T11:51:49.594Z,0.70
2023-03-13T11:54:39.827Z,0.63
2023-03-13T11:57:18.402Z,0.80
2023-03-13T12:00:00.841Z,0.80
2023-03-13T12:02:35.546Z,0.70
2023-03-13T12:05:09.212Z,0.63
2023-03-13T12:07:41.328Z,0.98
2023-03-13T12:10:17.920Z,0.63
2023-03-13T12:12:47.856Z,0.63
2023-03-13T12:15:14.297Z,0.80
2023-03-13T12:17:48.495Z,0.80
2023-03-13T12:20:26.656Z,0.47
2023-03-13T12:23:17.361Z,0.70
2023-03-13T12:26:19.310Z,0.70
2023-03-13T12:28:57.360Z,0.70
2023-03-13T12:31:56.343Z,0.50
2023-03-13T12:34:33.733Z,0.40
2023-03-13T12:37:12.251Z,0.73
2023-03-13T12:40:13.202Z,0.60
2023-03-13T12:42:47.214Z,0.70
2023-03-13T12:45:19.092Z,0.88
2023-03-13T12:47:48.408Z,0.52
2023-03-13T12:50:32.468Z,0.57
2023-03-13T12:53:05.250Z,0.88
2023-03-13T12:56:00.633Z,0.70
2023-03-13T12:58:51.840Z,0.70
2023-03-13T13:01:47.624Z,0.70
2023-03-13T13:04:18.305Z,1.00
2023-03-13T13:07:00.586Z,0.82
2023-03-13T13:09:30.619Z,0.90
2023-03-13T13:12:04.244Z,1.25
2023-03-13T13:14:31.466Z,1.00
2023-03-13T13:17:16.770Z,1.25
2023-03-13T13:19:44.850Z,1.00
2023-03-13T13:22:39.023Z,0.90
2023-03-13T13:25:11.348Z,0.80
2023-03-13T13:27:38.088Z,1.13
2023-03-13T13:30:24.645Z,0.88
2023-03-13T13:32:54.793Z,0.90
2023-03-13T13:35:33.135Z,1.00
2023-03-13T13:38:17.710Z,1.00
2023-03-13T13:41:11.557Z,1.98
2023-03-13T13:43:44.597Z,1.77
2023-03-13T13:46:29.975Z,1.40
2023-03-13T13:49:08.332Z,1.00
2023-03-13T13:51:39.311Z,1.63
2023-03-13T13:54:54.813Z,1.35
2023-03-13T13:57:31.973Z,1.73
2023-03-13T14:00:24.874Z,1.75
2023-03-13T14:02:54.068Z,1.90
2023-03-13T14:05:30.276Z,2.03
2023-03-13T14:08:29.592Z,1.45
2023-03-13T14:11:14.357Z,1.35
2023-03-13T14:13:41.283Z,1.40
2023-03-13T14:16:25.212Z,1.40
2023-03-13T14:18:52.928Z,2.40
2023-03-13T14:21:23.880Z,1.15
2023-03-13T14:23:50.354Z,1.40
2023-03-13T14:26:22.168Z,1.33
2023-03-13T14:28:51.438Z,1.63
2023-03-13T14:31:31.995Z,1.50
2023-03-13T14:34:01.302Z,1.73
2023-03-13T14:36:46.561Z,1.23
2023-03-13T14:39:22.100Z,1.48
2023-03-13T14:41:49.697Z,2.00
2023-03-13T14:44:28.292Z,1.33
2023-03-13T14:47:25.492Z,1.35
2023-03-13T14:50:01.234Z,1.65
2023-03-13T14:52:31.002Z,1.60
2023-03-13T14:55:02.095Z,1.37
2023-03-13T14:57:28.662Z,1.60
2023-03-13T15:00:26.647Z,2.25
2023-03-13T15:03:12.855Z,1.58
2023-03-13T15:05:39.463Z,1.65
2023-03-13T15:08:14.002Z,2.07
2023-03-13T15:10:41.251Z,2.53
2023-03-13T15:13:19.618Z,1.40
2023-03-13T15:15:49.347Z,1.52
2023-03-13T15:18:24.315Z,1.55
2023-03-13T15:20:59.391Z,1.53
2023-03-13T15:23:26.120Z,1.27
2023-03-13T15:25:52.431Z,1.85
2023-03-13T15:28:23.313Z,2.22
2023-03-13T15:30:52.899Z,1.48
2023-03-13T15:33:21.633Z,1.30
2023-03-13T15:35:48.575Z,1.60
2023-03-13T15:38:19.918Z,1.40
2023-03-13T15:40:46.289Z,1.58
2023-03-13T15:43:13.741Z,1.92
2023-03-13T15:45:42.954Z,2.13
2023-03-13T15:48:19.627Z,2.42
2023-03-13T15:51:00.316Z,1.60
2023-03-13T15:53:30.825Z,2.25
2023-03-13T15:55:59.818Z,1.63
2023-03-13T15:58:28.606Z,1.90
2023-03-13T16:00:56.138Z,2.05
2023-03-13T16:03:25.228Z,1.45
2023-03-13T16:05:52.762Z,1.60
2023-03-13T16:08:35.198Z,2.40
2023-03-13T16:11:02.852Z,1.60
2023-03-13T16:13:29.248Z,2.10
2023-03-13T16:15:56.531Z,2.00
2023-03-13T16:18:24.584Z,1.73
2023-03-13T16:20:52.442Z,2.42
2023-03-13T16:23:18.818Z,1.77
2023-03-13T16:25:49.153Z,1.85
2023-03-13T16:28:16.171Z,1.85
2023-03-13T16:30:47.542Z,1.85
2023-03-13T16:33:14.016Z,1.88
2023-03-13T16:35:40.954Z,1.30
2023-03-13T16:38:11.347Z,2.05
2023-03-13T16:40:37.727Z,1.92
2023-03-13T16:43:04.191Z,1.48
2023-03-13T16:45:30.547Z,2.10
2023-03-13T16:47:57.807Z,1.50
2023-03-13T16:50:28.898Z,2.58
2023-03-13T16:52:55.335Z,1.70
2023-03-13T16:55:27.968Z,1.92
2023-03-13T16:57:55.997Z,2.33
2023-03-13T17:00:23.944Z,1.47
2023-03-13T17:02:50.601Z,2.75
2023-03-13T17:05:17.585Z,2.20
2023-03-13T17:07:47.066Z,2.78
2023-03-13T17:10:29.204Z,2.10
2023-03-13T17:12:55.630Z,2.47
2023-03-13T17:15:23.123Z,2.63
2023-03-13T17:17:51.705Z,2.38
2023-03-13T17:20:24.518Z,2.40
2023-03-13T17:22:51.032Z,2.00
2023-03-13T17:25:17.809Z,2.30
2023-03-13T17:27:46.586Z,2.40
2023-03-13T17:30:28.476Z,3.03
2023-03-13T17:32:54.948Z,2.72
2023-03-13T17:35:22.036Z,2.03
2023-03-13T17:37:49.476Z,2.27
2023-03-13T17:40:27.867Z,2.58
2023-03-13T17:42:55.309Z,2.30
2023-03-13T17:45:21.667Z,2.67
2023-03-13T17:47:49.129Z,3.17
2023-03-13T17:50:26.806Z,2.10
2023-03-13T17:52:53.603Z,1.75
2023-03-13T17:55:20.042Z,3.15
2023-03-13T17:57:48.203Z,2.70
2023-03-13T18:00:20.330Z,2.20
2023-03-13T18:02:46.740Z,2.33
2023-03-13T18:05:13.273Z,2.33
2023-03-13T18:07:43.922Z,2.45
2023-03-13T18:10:17.787Z,2.15
2023-03-13T18:12:44.171Z,2.42
2023-03-13T18:15:11.442Z,2.47
2023-03-13T18:17:38.132Z,2.33
2023-03-13T18:20:09.859Z,3.60
2023-03-13T18:22:36.212Z,2.30
2023-03-13T18:25:02.598Z,2.50
2023-03-13T18:27:28.950Z,2.77
2023-03-13T18:29:55.263Z,2.13
2023-03-13T18:32:21.744Z,2.67
2023-03-13T18:34:48.121Z,2.75
2023-03-13T18:37:30.493Z,3.35
2023-03-13T18:39:57.858Z,2.13
2023-03-13T18:42:24.627Z,3.55
2023-03-13T18:44:51.414Z,2.60
2023-03-13T18:47:20.364Z,3.30
2023-03-13T18:49:48.756Z,2.70
2023-03-13T18:52:15.506Z,2.43
2023-03-13T18:54:41.837Z,2.70
2023-03-13T18:57:20.169Z,2.58
2023-03-13T18:59:46.607Z,2.97
2023-03-13T19:02:15.054Z,3.60
2023-03-13T19:04:41.954Z,2.43
2023-03-13T19:07:14.399Z,2.60
2023-03-13T19:09:43.947Z,2.58
2023-03-13T19:12:12.259Z,2.47
2023-03-13T19:14:38.788Z,3.58
2023-03-13T19:17:07.022Z,2.20
2023-03-13T19:19:33.418Z,3.50
2023-03-13T19:22:00.840Z,3.50
2023-03-13T19:24:27.461Z,2.50
2023-03-13T19:26:58.948Z,2.17
2023-03-13T19:29:27.628Z,2.37
2023-03-13T19:31:54.710Z,2.20
2023-03-13T19:34:21.543Z,2.45
2023-03-13T19:36:49.534Z,2.28
2023-03-13T19:39:18.308Z,2.85
2023-03-13T19:41:45.268Z,2.23
2023-03-13T19:44:11.623Z,2.47
2023-03-13T19:46:43.063Z,2.00
2023-03-13T19:49:17.977Z,2.00
2023-03-13T19:51:44.327Z,2.88
2023-03-13T19:54:12.092Z,2.80
2023-03-13T19:56:41.254Z,2.90
2023-03-13T19:59:14.136Z,2.90
2023-03-13T20:01:40.534Z,2.65
2023-03-13T20:04:06.917Z,2.38
2023-03-13T20:06:34.746Z,3.00
2023-03-13T20:09:04.555Z,3.60
2023-03-13T20:11:32.200Z,2.85
2023-03-13T20:13:59.332Z,3.00
2023-03-13T20:16:27.680Z,2.53
2023-03-13T20:18:57.775Z,2.80
2023-03-13T20:21:28.161Z,3.28
2023-03-13T20:23:54.590Z,2.83
2023-03-13T20:26:21.521Z,2.83
2023-03-13T20:28:51.828Z,2.80
2023-03-13T20:31:20.668Z,2.93
2023-03-13T20:33:47.243Z,3.30
2023-03-13T20:36:16.330Z,4.20
2023-03-13T20:38:43.540Z,3.22
2023-03-13T20:41:11.196Z,3.05
2023-03-13T20:43:38.066Z,3.17
2023-03-13T20:46:07.024Z,3.22
2023-03-13T20:48:37.002Z,2.90
2023-03-13T20:51:04.248Z,3.35
2023-03-13T20:53:30.567Z,2.72
2023-03-13T20:55:57.006Z,3.37
2023-03-13T20:58:23.979Z,2.72
2023-03-13T21:00:50.377Z,3.03
2023-03-13T21:03:17.657Z,2.85
2023-03-13T21:05:44.335Z,2.60
2023-03-13T21:08:10.809Z,2.80
2023-03-13T21:10:39.379Z,3.58
2023-03-13T21:13:06.172Z,3.38
2023-03-13T21:15:32.569Z,3.25
2023-03-13T21:17:59.654Z,3.13
2023-03-13T21:20:26.706Z,2.93
2023-03-13T21:22:53.099Z,2.78
2023-03-13T21:25:19.856Z,2.60
2023-03-13T21:27:46.435Z,3.50
2023-03-13T21:30:20.165Z,2.00
2023-03-13T21:32:47.234Z,2.77
2023-03-13T21:35:14.537Z,2.63
2023-03-13T21:37:41.164Z,2.85
2023-03-13T21:40:09.921Z,2.55
2023-03-13T21:42:37.393Z,2.05
2023-03-13T21:45:05.217Z,2.83
2023-03-13T21:47:36.420Z,1.95
2023-03-13T21:50:07.255Z,2.03
2023-03-13T21:52:40.554Z,2.30
2023-03-13T21:55:10.673Z,2.65
2023-03-13T21:57:37.004Z,2.30
2023-03-13T22:00:06.102Z,2.20
2023-03-13T22:02:32.495Z,2.53
2023-03-13T22:04:58.827Z,2.33
2023-03-13T22:07:25.143Z,1.95
2023-03-13T22:09:51.558Z,2.47
2023-03-13T22:12:18.461Z,2.15
2023-03-13T22:14:44.762Z,2.83
2023-03-13T22:17:16.734Z,2.78
2023-03-13T22:19:43.178Z,2.55
2023-03-13T22:22:09.507Z,2.63
2023-03-13T22:24:36.170Z,2.95
2023-03-13T22:27:02.530Z,2.25
2023-03-13T22:29:30.658Z,2.30
2023-03-13T22:31:57.376Z,2.83
2023-03-13T22:34:23.751Z,2.37
2023-03-13T22:36:50.119Z,2.63
2023-03-13T22:39:17.067Z,2.70
2023-03-13T22:41:43.558Z,2.25
2023-03-13T22:44:10.233Z,2.97
2023-03-13T22:46:36.634Z,3.33
2023-03-13T22:49:03.264Z,2.70
2023-03-13T22:51:30.011Z,2.35
2023-03-13T22:53:56.497Z,2.38
2023-03-13T22:56:24.167Z,2.17
2023-03-13T22:58:52.170Z,2.70
2023-03-13T23:01:18.966Z,1.90
2023-03-13T23:03:45.600Z,2.60
2023-03-13T23:06:17.134Z,2.53
2023-03-13T23:08:44.038Z,2.15
2023-03-13T23:11:10.626Z,2.10
2023-03-13T23:13:37.027Z,1.88
2023-03-13T23:16:11.094Z,2.58
2023-03-13T23:18:38.630Z,2.72
2023-03-13T23:21:07.376Z,2.00
2023-03-13T23:23:33.805Z,2.03
2023-03-13T23:26:04.444Z,2.38
2023-03-13T23:28:30.963Z,1.98
2023-03-13T23:30:57.393Z,1.77
2023-03-13T23:33:23.698Z,1.55
2023-03-13T23:35:50.104Z,1.57
2023-03-13T23:38:18.388Z,2.45
2023-03-13T23:40:45.588Z,2.88
2023-03-13T23:43:11.902Z,2.47
2023-03-13T23:45:38.367Z,2.25
2023-03-13T23:48:04.785Z,2.77
2023-03-13T23:50:31.079Z,2.35
2023-03-13T23:52:57.427Z,2.90
2023-03-13T23:55:24.071Z,2.28
2023-03-13T23:57:50.540Z,2.90
